Time;durP1;ratioP1;P1;durP2;ratioP2;P2;SDS_P1;SDS_P2;PMS_P1;PMS_P2;Temp;Humidity;BMP_temperature;BMP_pressure;BME280_temperature;BME280_humidity;BME280_pressure;Samples;Min_cycle;Max_cycle;Signal;HPM_P1;HPM_P2
2022/05/26 00:02:03;;;;;;;;;;;16.50;99.90;;;;;;5061775;28;20329;-73
2022/05/26 00:04:28;;;;;;;;;;;16.40;99.90;;;;;;5073815;28;19916;-74
2022/05/26 00:06:55;;;;;;;;;;;16.40;99.90;;;;;;5063123;28;19917;-74
2022/05/26 00:09:21;;;;;;;;;;;16.40;99.90;;;;;;5074018;28;19908;-73
2022/05/26 00:11:47;;;;;;;;;;;16.40;99.90;;;;;;5076379;28;20287;-73
2022/05/26 00:14:13;;;;;;;;;;;16.30;99.90;;;;;;5074199;28;19909;-73
2022/05/26 00:16:43;;;;;;;;;;;16.30;99.90;;;;;;5063093;28;19967;-74
2022/05/26 00:19:09;;;;;;;;;;;16.30;99.90;;;;;;5073768;28;19913;-73
2022/05/26 00:21:34;;;;;;;;;;;16.20;99.90;;;;;;5064053;28;20243;-74
2022/05/26 00:24:00;;;;;;;;;;;16.20;99.90;;;;;;5073680;28;19915;-73
2022/05/26 00:26:26;;;;;;;;;;;16.30;99.90;;;;;;5065569;28;20271;-74
2022/05/26 00:28:51;;;;;;;;;;;16.20;99.90;;;;;;5062140;28;19962;-75
2022/05/26 00:31:17;;;;;;;;;;;16.20;99.90;;;;;;5063416;28;20446;-73
2022/05/26 00:33:43;;;;;;;;;;;16.20;99.90;;;;;;5073301;28;20356;-73
2022/05/26 00:36:11;;;;;;;;;;;16.10;99.90;;;;;;5046646;28;19913;-73
2022/05/26 00:38:37;;;;;;;;;;;16.00;99.90;;;;;;5073144;28;19919;-74
2022/05/26 00:41:03;;;;;;;;;;;16.10;99.90;;;;;;5062143;28;20311;-74
2022/05/26 00:43:29;;;;;;;;;;;16.10;99.90;;;;;;5073409;28;20363;-74
2022/05/26 00:45:58;;;;;;;;;;;16.10;99.90;;;;;;5064485;28;19917;-82
2022/05/26 00:48:26;;;;;;;;;;;16.00;99.90;;;;;;5069182;28;19944;-82
2022/05/26 00:50:53;;;;;;;;;;;16.00;99.90;;;;;;5068381;28;19909;-82
2022/05/26 00:53:38;;;;;;;;;;;15.90;99.90;;;;;;5070495;28;19999;-82
2022/05/26 00:56:24;;;;;;;;;;;15.90;99.90;;;;;;5071284;28;20272;-82
2022/05/26 00:58:52;;;;;;;;;;;15.90;99.90;;;;;;5065923;28;19924;-82
2022/05/26 01:01:18;;;;;;;;;;;15.80;99.90;;;;;;5073863;28;20260;-82
2022/05/26 01:03:58;;;;;;;;;;;15.80;99.90;;;;;;5064978;28;19920;-82
2022/05/26 01:06:33;;;;;;;;;;;15.70;99.90;;;;;;5073354;28;20379;-82
2022/05/26 01:09:00;;;;;;;;;;;15.60;99.90;;;;;;5065977;28;19913;-82
2022/05/26 01:11:27;;;;;;;;;;;15.60;99.90;;;;;;5071625;28;19999;-82
2022/05/26 01:14:04;;;;;;;;;;;15.50;99.90;;;;;;5064049;28;19912;-82
2022/05/26 01:16:30;;;;;;;;;;;15.40;99.90;;;;;;5055692;28;19908;-82
2022/05/26 01:19:04;;;;;;;;;;;15.40;99.90;;;;;;5065896;28;20363;-82
2022/05/26 01:21:38;;;;;;;;;;;15.50;99.90;;;;;;5073151;28;19908;-82
2022/05/26 01:24:23;;;;;;;;;;;15.30;99.90;;;;;;5059614;28;20412;-82
2022/05/26 01:26:49;;;;;;;;;;;15.40;99.90;;;;;;5065305;28;19913;-82
2022/05/26 01:29:37;;;;;;;;;;;15.50;99.90;;;;;;5064699;28;20310;-82
2022/05/26 01:32:22;;;;;;;;;;;15.50;99.90;;;;;;5012240;28;19956;-74
2022/05/26 01:35:08;;;;;;;;;;;15.50;99.90;;;;;;5027284;28;19917;-74
2022/05/26 01:37:35;;;;;;;;;;;15.50;99.90;;;;;;5023273;28;19952;-74
2022/05/26 01:40:06;;;;;;;;;;;15.60;99.90;;;;;;5014105;28;20256;-73
2022/05/26 01:42:38;;;;;;;;;;;15.60;99.90;;;;;;5024004;28;19913;-74
2022/05/26 01:45:11;;;;;;;;;;;15.60;99.90;;;;;;5029393;28;19913;-82
2022/05/26 01:47:40;;;;;;;;;;;15.70;99.90;;;;;;5025609;28;20376;-82
2022/05/26 01:50:11;;;;;;;;;;;15.70;99.90;;;;;;5034838;28;19910;-82
2022/05/26 01:52:44;;;;;;;;;;;15.80;99.90;;;;;;5029764;28;20015;-82
2022/05/26 01:55:12;;;;;;;;;;;15.80;99.90;;;;;;5034760;28;19909;-82
2022/05/26 01:57:50;;;;;;;;;;;15.80;99.90;;;;;;5032014;28;19968;-82
2022/05/26 02:00:17;;;;;;;;;;;15.90;99.90;;;;;;5034975;28;19936;-82
2022/05/26 02:02:50;;;;;;;;;;;15.90;99.90;;;;;;5023609;28;19965;-82
2022/05/26 02:05:28;;;;;;;;;;;15.90;99.90;;;;;;5027904;28;20331;-82
2022/05/26 02:07:58;;;;;;;;;;;16.00;99.90;;;;;;5031991;28;20246;-82
2022/05/26 02:10:36;;;;;;;;;;;15.90;99.90;;;;;;5075718;28;20004;-82
2022/05/26 02:13:06;;;;;;;;;;;15.90;99.90;;;;;;5072100;28;19912;-82
2022/05/26 02:15:47;;;;;;;;;;;16.00;99.90;;;;;;5066949;28;19912;-82
2022/05/26 02:18:19;;;;;;;;;;;15.90;99.90;;;;;;5075342;28;19921;-82
2022/05/26 02:20:47;;;;;;;;;;;15.90;99.90;;;;;;5069660;28;19917;-82
2022/05/26 02:23:16;;;;;;;;;;;15.80;99.90;;;;;;5070553;28;19915;-82
2022/05/26 02:25:42;;;;;;;;;;;15.80;99.90;;;;;;5070186;28;19951;-82
2022/05/26 02:28:09;;;;;;;;;;;15.80;99.90;;;;;;5050952;28;19964;-82
2022/05/26 02:30:36;;;;;;;;;;;15.60;99.90;;;;;;5037774;28;19916;-82
2022/05/26 02:33:04;;;;;;;;;;;15.60;99.90;;;;;;5069818;28;19915;-82
2022/05/26 02:35:31;;;;;;;;;;;15.50;99.90;;;;;;5071568;28;19916;-82
2022/05/26 02:38:06;;;;;;;;;;;15.50;99.90;;;;;;5069823;28;20340;-82
2022/05/26 02:40:32;;;;;;;;;;;15.50;99.90;;;;;;5068405;28;19966;-82
2022/05/26 02:43:00;;;;;;;;;;;15.50;99.90;;;;;;5070746;28;20011;-82
2022/05/26 02:45:44;;;;;;;;;;;15.50;99.90;;;;;;5069986;28;19917;-82
2022/05/26 02:48:28;;;;;;;;;;;15.50;99.90;;;;;;5073853;28;19908;-82
2022/05/26 02:51:04;;;;;;;;;;;15.50;99.90;;;;;;5066021;28;19939;-82
2022/05/26 02:53:31;;;;;;;;;;;15.50;99.90;;;;;;5075856;28;19912;-82
2022/05/26 02:56:06;;;;;;;;;;;15.40;99.90;;;;;;5064326;28;19920;-82
2022/05/26 02:58:34;;;;;;;;;;;15.40;99.90;;;;;;5075103;28;20348;-82
2022/05/26 03:01:02;;;;;;;;;;;15.30;99.90;;;;;;5065861;28;19916;-82
2022/05/26 03:03:44;;;;;;;;;;;15.30;99.90;;;;;;5075891;28;19909;-82
2022/05/26 03:06:10;;;;;;;;;;;15.20;99.90;;;;;;5066608;28;20360;-82
2022/05/26 03:08:39;;;;;;;;;;;15.20;99.90;;;;;;5075711;28;19908;-82
2022/05/26 03:11:13;;;;;;;;;;;15.30;99.90;;;;;;5065166;28;19913;-82
2022/05/26 03:13:39;;;;;;;;;;;15.30;99.90;;;;;;5068872;28;20394;-82
2022/05/26 03:16:05;;;;;;;;;;;15.40;99.90;;;;;;5047459;28;19962;-74
2022/05/26 03:18:31;;;;;;;;;;;15.40;99.90;;;;;;5050535;28;20283;-74
2022/05/26 03:21:00;;;;;;;;;;;15.50;99.90;;;;;;5056086;28;19919;-74
2022/05/26 03:23:26;;;;;;;;;;;15.50;99.90;;;;;;5074958;28;19913;-74
2022/05/26 03:25:53;;;;;;;;;;;15.50;99.90;;;;;;5065533;28;20368;-74
2022/05/26 03:28:19;;;;;;;;;;;15.40;99.90;;;;;;5061482;28;19956;-74
2022/05/26 03:30:44;;;;;;;;;;;15.50;99.90;;;;;;5063419;28;20015;-82
2022/05/26 03:33:10;;;;;;;;;;;15.40;99.90;;;;;;5072072;28;19915;-82
2022/05/26 03:41:04;;;;;;;;;;;15.20;99.90;;;;;;5057072;28;19935;-82
2022/05/26 03:43:34;;;;;;;;;;;15.10;99.90;;;;;;5074495;28;20356;-82
2022/05/26 03:46:01;;;;;;;;;;;15.10;99.90;;;;;;5072324;28;19908;-73
2022/05/26 03:48:27;;;;;;;;;;;15.20;99.90;;;;;;5034681;28;19948;-74
2022/05/26 03:50:52;;;;;;;;;;;15.10;99.90;;;;;;5052767;28;20029;-74
2022/05/26 03:53:18;;;;;;;;;;;14.90;99.90;;;;;;5054532;28;19913;-74
2022/05/26 03:55:43;;;;;;;;;;;14.80;99.90;;;;;;5054323;28;20352;-74
2022/05/26 03:58:09;;;;;;;;;;;14.70;99.90;;;;;;5054212;28;19979;-74
2022/05/26 04:00:35;;;;;;;;;;;14.80;99.90;;;;;;5036499;28;20422;-74
2022/05/26 04:03:01;;;;;;;;;;;14.70;99.90;;;;;;5054453;28;19959;-74
2022/05/26 04:05:27;;;;;;;;;;;14.70;99.90;;;;;;5054324;28;20363;-74
2022/05/26 04:07:52;;;;;;;;;;;14.60;99.90;;;;;;5055255;28;19992;-74
2022/05/26 04:10:18;;;;;;;;;;;14.80;99.90;;;;;;5062369;28;20311;-74
2022/05/26 04:12:43;;;;;;;;;;;14.60;99.90;;;;;;5062443;28;19921;-73
2022/05/26 04:15:09;;;;;;;;;;;14.70;99.90;;;;;;5061389;28;19912;-74
2022/05/26 04:17:35;;;;;;;;;;;14.70;99.90;;;;;;5062444;28;19940;-82
2022/05/26 04:20:01;;;;;;;;;;;14.80;99.90;;;;;;5063723;28;20275;-82
2022/05/26 04:22:26;;;;;;;;;;;14.80;99.90;;;;;;5071310;28;19931;-82
2022/05/26 04:24:56;;;;;;;;;;;14.80;99.90;;;;;;5074239;28;20007;-82
2022/05/26 04:27:22;;;;;;;;;;;14.80;99.90;;;;;;5066224;28;19909;-82
2022/05/26 04:29:48;;;;;;;;;;;14.80;99.90;;;;;;5063634;28;19917;-82
2022/05/26 04:32:14;;;;;;;;;;;14.80;99.90;;;;;;5057736;28;20004;-74
2022/05/26 04:34:39;;;;;;;;;;;14.80;99.90;;;;;;5065220;28;19916;-74
2022/05/26 04:37:05;;;;;;;;;;;14.70;99.90;;;;;;5069088;28;20283;-74
2022/05/26 04:39:31;;;;;;;;;;;14.60;99.90;;;;;;5048687;28;19913;-74
2022/05/26 04:41:59;;;;;;;;;;;14.60;99.90;;;;;;5069276;28;19912;-74
2022/05/26 04:44:25;;;;;;;;;;;14.60;99.90;;;;;;5064149;28;19912;-73
2022/05/26 04:46:50;;;;;;;;;;;14.60;99.90;;;;;;5073802;28;19908;-74
2022/05/26 04:49:15;;;;;;;;;;;14.70;99.90;;;;;;5065434;28;19966;-74
2022/05/26 04:51:41;;;;;;;;;;;14.70;99.90;;;;;;5073336;28;20390;-74
2022/05/26 04:54:07;;;;;;;;;;;14.70;99.90;;;;;;5066309;28;19952;-74
2022/05/26 04:56:32;;;;;;;;;;;14.70;99.90;;;;;;5059634;28;19970;-74
2022/05/26 04:58:58;;;;;;;;;;;14.70;99.90;;;;;;5065006;28;19916;-74
2022/05/26 05:01:24;;;;;;;;;;;14.70;99.90;;;;;;5073636;28;19908;-82
2022/05/26 05:03:49;;;;;;;;;;;14.80;99.90;;;;;;5066781;28;19912;-82
2022/05/26 05:06:15;;;;;;;;;;;14.90;99.90;;;;;;5073345;28;19918;-82
2022/05/26 05:08:41;;;;;;;;;;;14.90;99.90;;;;;;5047731;28;19956;-83
2022/05/26 05:11:07;;;;;;;;;;;15.10;99.90;;;;;;5063878;28;19913;-82
2022/05/26 05:13:33;;;;;;;;;;;15.00;99.90;;;;;;5059812;28;19919;-82
2022/05/26 05:16:03;;;;;;;;;;;15.20;99.90;;;;;;5065322;28;20284;-82
2022/05/26 05:18:29;;;;;;;;;;;15.20;99.90;;;;;;5073438;28;19959;-73
2022/05/26 05:20:56;;;;;;;;;;;15.20;99.90;;;;;;5071711;28;19912;-77
2022/05/26 05:23:21;;;;;;;;;;;15.30;99.90;;;;;;5079577;28;19918;-77
2022/05/26 05:25:49;;;;;;;;;;;15.50;99.90;;;;;;5074739;28;19908;-77
2022/05/26 05:28:18;;;;;;;;;;;15.70;99.90;;;;;;5066301;28;19912;-77
2022/05/26 05:30:56;;;;;;;;;;;15.80;99.90;;;;;;5067279;28;19917;-77
2022/05/26 05:33:23;;;;;;;;;;;16.00;99.90;;;;;;5062098;28;19909;-73
2022/05/26 05:35:57;;;;;;;;;;;16.10;99.90;;;;;;5068834;28;19923;-73
2022/05/26 05:38:23;;;;;;;;;;;16.10;99.90;;;;;;5079214;28;19935;-72
2022/05/26 05:40:49;;;;;;;;;;;16.10;99.90;;;;;;5079476;28;20264;-76
2022/05/26 05:43:15;;;;;;;;;;;16.10;99.90;;;;;;5072530;28;20123;-74
2022/05/26 05:45:40;;;;;;;;;;;16.00;99.90;;;;;;5075822;28;19908;-73
2022/05/26 05:48:11;;;;;;;;;;;16.10;99.90;;;;;;5068023;28;20324;-73
2022/05/26 05:50:36;;;;;;;;;;;16.00;99.90;;;;;;5063644;28;19909;-74
2022/05/26 05:53:05;;;;;;;;;;;16.00;99.90;;;;;;5060071;28;19915;-73
2022/05/26 05:55:31;;;;;;;;;;;16.00;99.90;;;;;;5070902;28;19915;-73
2022/05/26 05:57:57;;;;;;;;;;;16.10;99.90;;;;;;5070857;28;19912;-74
2022/05/26 06:00:22;;;;;;;;;;;16.10;99.90;;;;;;5062285;28;20275;-74
2022/05/26 06:02:53;;;;;;;;;;;16.10;99.90;;;;;;5071224;28;20323;-78
2022/05/26 06:05:18;;;;;;;;;;;16.20;99.90;;;;;;5067793;28;19913;-78
2022/05/26 06:07:44;;;;;;;;;;;16.20;99.90;;;;;;5060151;28;19930;-77
2022/05/26 06:10:47;;;;;;;;;;;16.30;99.90;;;;;;5059747;28;19912;-82
2022/05/26 06:19:53;;;;;;;;;;;16.90;99.90;;;;;;5074034;28;20406;-87
2022/05/26 06:25:21;;;;;;;;;;;17.60;99.90;;;;;;5080225;28;19923;-76
2022/05/26 06:30:41;;;;;;;;;;;18.00;99.90;;;;;;5071910;28;19955;-77
2022/05/26 06:38:41;;;;;;;;;;;18.50;99.90;;;;;;5063362;28;20379;-74
2022/05/26 06:43:53;;;;;;;;;;;18.70;99.90;;;;;;5074344;28;19916;-74
2022/05/26 06:46:18;;;;;;;;;;;18.90;99.90;;;;;;5088712;28;19909;-74
2022/05/26 06:48:44;;;;;;;;;;;19.20;99.90;;;;;;5071814;28;19917;-75
2022/05/26 06:51:10;;;;;;;;;;;19.30;99.90;;;;;;5032003;28;19918;-74
2022/05/26 06:53:41;;;;;;;;;;;19.30;99.90;;;;;;5049081;28;19999;-74
2022/05/26 06:56:07;;;;;;;;;;;19.60;99.90;;;;;;5053690;28;19916;-74
2022/05/26 06:58:33;;;;;;;;;;;19.40;99.90;;;;;;5071685;28;19927;-74
2022/05/26 07:00:58;;;;;;;;;;;19.40;99.90;;;;;;5068080;28;19908;-74
2022/05/26 07:03:24;;;;;;;;;;;19.50;99.90;;;;;;5071807;28;19916;-77
2022/05/26 07:05:53;;;;;;;;;;;19.30;99.90;;;;;;5075228;28;19995;-77
2022/05/26 07:08:19;;;;;;;;;;;19.30;99.90;;;;;;5059105;28;20326;-76
2022/05/26 07:14:17;;;;;;;;;;;19.20;99.90;;;;;;5061753;28;19920;-81
2022/05/26 07:16:59;;;;;;;;;;;19.50;99.90;;;;;;5056491;28;19913;-80
2022/05/26 07:22:31;;;;;;;;;;;19.40;99.90;;;;;;5055439;28;19996;-82
2022/05/26 07:24:59;;;;;;;;;;;19.40;99.90;;;;;;5062883;28;19909;-83
2022/05/26 07:27:29;;;;;;;;;;;19.40;99.90;;;;;;5062036;28;20394;-82
2022/05/26 07:29:54;;;;;;;;;;;19.50;99.90;;;;;;5054464;28;19912;-81
2022/05/26 07:32:29;;;;;;;;;;;19.50;99.90;;;;;;5061703;28;19999;-82
2022/05/26 07:35:17;;;;;;;;;;;19.60;99.90;;;;;;5067267;28;20015;-82
2022/05/26 07:43:31;;;;;;;;;;;20.40;99.90;;;;;;5067362;28;20382;-76
2022/05/26 07:45:57;;;;;;;;;;;20.30;99.90;;;;;;5068917;28;19963;-89
2022/05/26 07:48:22;;;;;;;;;;;20.10;99.90;;;;;;5061138;28;19908;-91
2022/05/26 07:50:48;;;;;;;;;;;20.20;99.90;;;;;;5038359;28;20000;-86
2022/05/26 07:53:14;;;;;;;;;;;20.20;99.90;;;;;;5036645;28;20390;-84
2022/05/26 07:55:42;;;;;;;;;;;20.40;99.90;;;;;;5068187;28;19912;-83
2022/05/26 07:58:13;;;;;;;;;;;20.60;99.90;;;;;;5077478;28;19917;-82
2022/05/26 08:00:39;;;;;;;;;;;20.50;99.90;;;;;;5042346;28;19923;-82
2022/05/26 08:03:05;;;;;;;;;;;20.60;99.90;;;;;;5068605;28;20360;-82
2022/05/26 08:05:32;;;;;;;;;;;20.80;99.90;;;;;;5074613;28;19912;-75
2022/05/26 08:07:57;;;;;;;;;;;20.80;99.90;;;;;;5058766;28;19955;-75
2022/05/26 08:10:23;;;;;;;;;;;20.80;99.90;;;;;;5074151;28;20329;-75
2022/05/26 08:12:49;;;;;;;;;;;20.80;99.90;;;;;;5061245;28;19909;-76
2022/05/26 08:15:15;;;;;;;;;;;20.80;99.90;;;;;;5068294;28;20306;-75
2022/05/26 08:17:40;;;;;;;;;;;20.80;99.90;;;;;;5067812;28;20435;-75
2022/05/26 08:20:08;;;;;;;;;;;20.90;99.90;;;;;;5074152;28;20252;-75
2022/05/26 08:22:33;;;;;;;;;;;21.00;99.90;;;;;;5089519;28;19954;-76
2022/05/26 08:24:59;;;;;;;;;;;21.10;99.90;;;;;;5073919;28;19908;-78
2022/05/26 08:27:24;;;;;;;;;;;20.90;99.90;;;;;;5073719;28;20253;-75
2022/05/26 08:29:52;;;;;;;;;;;20.70;99.90;;;;;;5073818;28;19939;-75
2022/05/26 08:32:18;;;;;;;;;;;20.80;99.90;;;;;;5068136;28;19908;-76
2022/05/26 08:34:44;;;;;;;;;;;20.90;99.90;;;;;;5073846;28;20288;-76
2022/05/26 08:37:17;;;;;;;;;;;20.80;99.90;;;;;;5073223;28;19913;-76
2022/05/26 08:39:42;;;;;;;;;;;21.10;99.90;;;;;;5073634;28;19989;-75
2022/05/26 08:42:14;;;;;;;;;;;21.00;99.90;;;;;;5062329;28;19967;-81
2022/05/26 08:44:40;;;;;;;;;;;20.80;99.90;;;;;;5065993;28;19923;-75
2022/05/26 08:47:14;;;;;;;;;;;20.80;99.90;;;;;;5066107;28;19917;-76
2022/05/26 08:49:39;;;;;;;;;;;20.60;99.90;;;;;;5070473;28;20010;-86
2022/05/26 08:52:15;;;;;;;;;;;20.70;99.90;;;;;;5067556;28;19948;-86
2022/05/26 08:54:49;;;;;;;;;;;20.70;99.90;;;;;;5059699;28;19980;-85
2022/05/26 08:57:21;;;;;;;;;;;21.20;99.90;;;;;;5067670;28;19913;-88
2022/05/26 08:59:47;;;;;;;;;;;21.80;99.90;;;;;;5067322;28;19974;-85
2022/05/26 09:02:23;;;;;;;;;;;22.10;99.90;;;;;;5070814;28;19912;-85
2022/05/26 09:04:49;;;;;;;;;;;22.10;99.90;;;;;;5056447;28;20279;-74
2022/05/26 09:12:58;;;;;;;;;;;21.60;99.90;;;;;;5054332;28;19968;-74
2022/05/26 09:15:24;;;;;;;;;;;21.60;99.90;;;;;;5055485;28;19920;-74
2022/05/26 09:17:50;;;;;;;;;;;21.60;99.90;;;;;;5061551;28;20261;-74
2022/05/26 09:20:25;;;;;;;;;;;21.40;99.90;;;;;;5070230;28;19916;-74
2022/05/26 09:22:51;;;;;;;;;;;21.20;99.90;;;;;;5059496;28;19913;-74
2022/05/26 09:25:36;;;;;;;;;;;21.00;99.90;;;;;;5044698;28;20012;-74
2022/05/26 09:28:02;;;;;;;;;;;20.80;99.90;;;;;;5059718;28;19913;-74
2022/05/26 09:30:32;;;;;;;;;;;20.70;99.90;;;;;;5060683;28;19917;-75
2022/05/26 09:32:57;;;;;;;;;;;20.50;99.90;;;;;;5061691;28;19950;-75
2022/05/26 09:35:25;;;;;;;;;;;20.60;99.90;;;;;;5061063;28;19948;-84
2022/05/26 09:37:52;;;;;;;;;;;20.60;99.90;;;;;;5072494;28;20379;-84
2022/05/26 09:40:18;;;;;;;;;;;20.70;99.90;;;;;;5044016;28;20375;-84
2022/05/26 09:42:44;;;;;;;;;;;20.90;99.90;;;;;;5056554;28;19958;-84
2022/05/26 09:45:12;;;;;;;;;;;21.20;99.90;;;;;;5066107;28;19908;-84
2022/05/26 09:47:43;;;;;;;;;;;21.50;99.90;;;;;;5062292;28;19913;-85
2022/05/26 09:50:13;;;;;;;;;;;21.70;99.90;;;;;;5056655;28;19913;-85
2022/05/26 09:52:41;;;;;;;;;;;21.80;99.90;;;;;;5074549;28;20011;-85
2022/05/26 09:55:07;;;;;;;;;;;21.70;99.90;;;;;;5059156;28;19913;-84
2022/05/26 09:57:33;;;;;;;;;;;21.60;99.90;;;;;;5065917;28;20378;-85
2022/05/26 09:59:58;;;;;;;;;;;21.60;99.90;;;;;;5056956;28;19913;-85
2022/05/26 10:02:27;;;;;;;;;;;21.60;99.90;;;;;;5058764;28;20321;-85
2022/05/26 10:05:17;;;;;;;;;;;21.40;99.90;;;;;;5053475;28;19913;-84
2022/05/26 10:08:04;;;;;;;;;;;21.50;99.90;;;;;;5056998;28;19909;-85
2022/05/26 10:10:35;;;;;;;;;;;21.80;99.90;;;;;;5057048;28;19909;-85
2022/05/26 10:13:15;;;;;;;;;;;22.00;99.90;;;;;;5056956;28;19909;-84
2022/05/26 10:15:52;;;;;;;;;;;22.40;99.90;;;;;;5053755;28;20245;-84
2022/05/26 10:18:20;;;;;;;;;;;22.80;99.90;;;;;;5058742;28;19912;-84
2022/05/26 10:20:59;;;;;;;;;;;23.50;99.90;;;;;;5064685;28;19948;-84
2022/05/26 10:23:39;;;;;;;;;;;23.40;99.90;;;;;;5076616;28;19908;-85
2022/05/26 10:26:18;;;;;;;;;;;23.70;99.90;;;;;;5076743;28;19915;-84
2022/05/26 10:28:56;;;;;;;;;;;24.00;99.90;;;;;;5076709;28;19979;-83
2022/05/26 10:31:33;;;;;;;;;;;24.00;99.90;;;;;;5075001;28;19913;-84
2022/05/26 10:34:02;;;;;;;;;;;23.90;99.90;;;;;;5091979;28;19917;-84
2022/05/26 10:36:46;;;;;;;;;;;24.00;99.90;;;;;;5092138;28;20393;-84
2022/05/26 10:39:11;;;;;;;;;;;24.20;99.90;;;;;;5076268;28;20034;-84
2022/05/26 10:41:41;;;;;;;;;;;23.90;99.90;;;;;;5076408;28;19955;-85
2022/05/26 10:44:07;;;;;;;;;;;23.90;99.90;;;;;;5076179;28;19923;-84
2022/05/26 10:46:35;;;;;;;;;;;23.90;99.90;;;;;;5070905;28;19913;-84
2022/05/26 10:49:07;;;;;;;;;;;24.00;99.90;;;;;;5044615;28;19956;-84
2022/05/26 10:51:32;;;;;;;;;;;24.20;99.90;;;;;;5071698;28;19908;-74
2022/05/26 10:54:08;;;;;;;;;;;24.50;99.90;;;;;;5075585;28;19908;-75
2022/05/26 10:56:40;;;;;;;;;;;23.90;99.90;;;;;;5065795;28;19909;-75
2022/05/26 10:59:24;;;;;;;;;;;23.60;99.90;;;;;;5091005;28;19912;-75
2022/05/26 11:02:05;;;;;;;;;;;23.30;99.90;;;;;;5075366;28;19908;-75
2022/05/26 11:04:49;;;;;;;;;;;23.50;99.90;;;;;;5075096;28;19908;-75
2022/05/26 11:07:17;;;;;;;;;;;23.10;99.90;;;;;;5038777;28;19916;-90
2022/05/26 11:09:49;;;;;;;;;;;23.20;99.90;;;;;;5064678;28;20275;-84
2022/05/26 11:12:28;;;;;;;;;;;23.20;99.90;;;;;;5049872;28;20369;-84
2022/05/26 11:18:04;;;;;;;;;;;23.20;99.90;;;;;;5055616;28;19967;-83
2022/05/26 11:20:35;;;;;;;;;;;23.50;99.90;;;;;;5074662;28;19915;-83
2022/05/26 11:23:04;;;;;;;;;;;23.60;99.90;;;;;;5057505;28;19908;-84
2022/05/26 11:25:35;;;;;;;;;;;23.80;99.90;;;;;;5063775;28;19963;-83
2022/05/26 11:28:04;;;;;;;;;;;24.00;99.90;;;;;;5075261;28;19913;-82
2022/05/26 11:36:22;;;;;;;;;;;23.90;99.90;;;;;;5074961;28;19978;-82
2022/05/26 11:38:49;;;;;;;;;;;23.80;99.90;;;;;;5038953;28;19912;-83
2022/05/26 11:41:35;;;;;;;;;;;23.60;99.90;;;;;;5054973;28;19909;-82
2022/05/26 11:44:03;;;;;;;;;;;23.40;99.90;;;;;;5041619;28;19915;-83
2022/05/26 11:46:48;;;;;;;;;;;22.90;99.90;;;;;;5036597;28;19913;-83
2022/05/26 11:49:34;;;;;;;;;;;22.70;99.90;;;;;;5054799;28;19931;-83
2022/05/26 11:52:00;;;;;;;;;;;22.80;99.90;;;;;;5042541;28;19912;-73
2022/05/26 11:54:45;;;;;;;;;;;23.00;99.90;;;;;;5071999;28;19916;-73
2022/05/26 11:57:29;;;;;;;;;;;23.10;99.90;;;;;;5045380;28;19913;-73
2022/05/26 12:00:18;;;;;;;;;;;23.20;99.90;;;;;;5067508;28;20318;-73
2022/05/26 12:02:45;;;;;;;;;;;23.50;99.90;;;;;;5055193;28;19913;-73
2022/05/26 12:05:28;;;;;;;;;;;24.20;99.90;;;;;;5056287;28;20417;-73
2022/05/26 12:07:55;;;;;;;;;;;24.50;99.90;;;;;;5063993;28;19912;-82
2022/05/26 12:10:21;;;;;;;;;;;24.60;99.90;;;;;;5074231;28;19915;-83
2022/05/26 12:12:47;;;;;;;;;;;24.60;99.90;;;;;;5064152;28;19908;-83
2022/05/26 12:15:17;;;;;;;;;;;24.30;99.90;;;;;;5074193;28;19908;-83
2022/05/26 12:17:50;;;;;;;;;;;24.20;99.90;;;;;;5074036;28;19920;-83
2022/05/26 12:20:15;;;;;;;;;;;23.90;99.90;;;;;;5074078;28;19908;-83
2022/05/26 12:22:47;;;;;;;;;;;23.80;99.90;;;;;;5074334;28;19914;-83
2022/05/26 12:25:25;;;;;;;;;;;23.70;99.90;;;;;;5074057;28;19954;-83
2022/05/26 12:27:54;;;;;;;;;;;23.70;99.90;;;;;;5073968;28;19951;-82
2022/05/26 12:30:38;;;;;;;;;;;23.90;99.90;;;;;;5070589;28;19913;-83
2022/05/26 12:33:22;;;;;;;;;;;24.20;99.90;;;;;;5058879;28;19912;-83
2022/05/26 12:35:48;;;;;;;;;;;24.10;99.90;;;;;;5073555;28;20324;-83
2022/05/26 12:38:16;;;;;;;;;;;24.20;99.90;;;;;;5065230;28;19978;-73
2022/05/26 12:40:42;;;;;;;;;;;24.00;99.90;;;;;;5068809;28;19952;-73
2022/05/26 12:43:40;;;;;;;;;;;23.90;99.90;;;;;;5073111;28;20414;-72
2022/05/26 12:46:32;;;;;;;;;;;24.20;99.90;;;;;;5030957;28;20403;-72
2022/05/26 12:49:01;;;;;;;;;;;24.40;99.90;;;;;;5031022;28;19924;-72
2022/05/26 12:51:32;;;;;;;;;;;24.60;99.90;;;;;;5031673;28;19913;-80
2022/05/26 12:53:58;;;;;;;;;;;24.80;99.90;;;;;;5031062;28;19960;-72
2022/05/26 12:56:30;;;;;;;;;;;24.70;99.90;;;;;;5030971;28;20438;-72
2022/05/26 12:58:57;;;;;;;;;;;24.90;99.90;;;;;;5031032;28;19917;-75
2022/05/26 13:01:24;;;;;;;;;;;25.00;99.90;;;;;;5016110;28;20096;-75
2022/05/26 13:03:58;;;;;;;;;;;25.10;99.90;;;;;;5019010;28;19916;-75
2022/05/26 13:06:29;;;;;;;;;;;25.20;99.90;;;;;;5028174;28;20373;-76
2022/05/26 13:08:54;;;;;;;;;;;25.30;99.90;;;;;;5018107;28;19908;-77
2022/05/26 13:11:21;;;;;;;;;;;25.20;99.90;;;;;;5030806;28;20321;-77
2022/05/26 13:13:49;;;;;;;;;;;24.90;99.90;;;;;;5001182;28;20468;-77
2022/05/26 13:16:26;;;;;;;;;;;25.30;99.90;;;;;;5030536;28;19941;-82
2022/05/26 13:18:52;;;;;;;;;;;25.10;99.90;;;;;;5014380;28;19922;-78
2022/05/26 13:21:19;;;;;;;;;;;25.00;99.90;;;;;;5034994;28;19909;-79
2022/05/26 13:23:44;;;;;;;;;;;25.30;99.90;;;;;;5073077;28;19909;-84
2022/05/26 13:26:12;;;;;;;;;;;25.20;99.90;;;;;;5062639;28;19913;-84
2022/05/26 13:28:39;;;;;;;;;;;25.30;99.90;;;;;;5059374;28;20007;-86
2022/05/26 13:33:50;;;;;;;;;;;25.50;99.90;;;;;;5065117;28;19963;-81
2022/05/26 13:36:24;;;;;;;;;;;25.80;99.90;;;;;;5072820;28;19991;-82
2022/05/26 13:38:50;;;;;;;;;;;25.60;99.90;;;;;;5073143;28;19940;-73
2022/05/26 13:41:20;;;;;;;;;;;25.40;99.90;;;;;;5072617;28;20378;-73
2022/05/26 13:43:47;;;;;;;;;;;25.10;99.90;;;;;;5075165;28;20393;-74
2022/05/26 13:46:21;;;;;;;;;;;24.90;99.90;;;;;;5064572;28;19913;-73
2022/05/26 13:48:52;;;;;;;;;;;24.80;99.90;;;;;;5059897;28;19916;-73
2022/05/26 13:51:17;;;;;;;;;;;24.80;99.90;;;;;;5064279;28;20029;-73
2022/05/26 13:53:48;;;;;;;;;;;24.90;99.90;;;;;;5077195;28;19951;-80
2022/05/26 13:56:33;;;;;;;;;;;25.20;99.90;;;;;;5066594;28;19985;-81
2022/05/26 13:59:04;;;;;;;;;;;25.30;99.90;;;;;;5044277;28;20002;-80
2022/05/26 14:01:30;;;;;;;;;;;24.90;99.90;;;;;;5069850;28;19909;-80
2022/05/26 14:03:58;;;;;;;;;;;24.70;99.90;;;;;;5076583;28;19999;-81
2022/05/26 14:06:26;;;;;;;;;;;24.50;99.90;;;;;;5076356;28;19909;-81
2022/05/26 14:08:53;;;;;;;;;;;24.30;99.90;;;;;;5047191;28;20382;-80
2022/05/26 14:11:35;;;;;;;;;;;24.20;99.90;;;;;;5065188;28;20364;-91
2022/05/26 14:14:20;;;;;;;;;;;24.40;99.90;;;;;;5054625;28;19909;-87
2022/05/26 14:16:46;;;;;;;;;;;24.90;99.90;;;;;;5071083;28;20271;-88
2022/05/26 14:19:16;;;;;;;;;;;25.40;99.90;;;;;;5077252;28;19912;-87
2022/05/26 14:21:48;;;;;;;;;;;25.80;99.90;;;;;;5076895;28;19908;-87
2022/05/26 14:24:34;;;;;;;;;;;26.00;99.90;;;;;;5077181;28;19915;-87
2022/05/26 14:27:19;;;;;;;;;;;26.20;99.90;;;;;;5067326;28;19908;-87
2022/05/26 14:29:45;;;;;;;;;;;26.60;99.90;;;;;;5061204;28;19916;-84
2022/05/26 14:32:16;;;;;;;;;;;26.40;99.90;;;;;;5054010;28;19921;-76
2022/05/26 14:34:43;;;;;;;;;;;26.30;99.90;;;;;;5074369;28;20001;-78
2022/05/26 14:37:09;;;;;;;;;;;25.60;99.90;;;;;;5058145;28;19909;-84
2022/05/26 14:39:35;;;;;;;;;;;25.30;99.90;;;;;;5075958;28;19919;-78
2022/05/26 14:42:01;;;;;;;;;;;25.30;99.90;;;;;;5075577;28;20020;-88
2022/05/26 14:44:26;;;;;;;;;;;25.80;99.90;;;;;;5091660;28;20382;-78
2022/05/26 14:46:52;;;;;;;;;;;26.30;99.90;;;;;;5076468;28;19987;-87
2022/05/26 14:49:17;;;;;;;;;;;26.80;99.90;;;;;;5076484;28;20374;-88
2022/05/26 14:51:43;;;;;;;;;;;26.90;99.90;;;;;;5075813;28;19915;-81
2022/05/26 14:56:55;;;;;;;;;;;27.20;99.90;;;;;;5054821;28;20379;-89
2022/05/26 14:59:20;;;;;;;;;;;27.10;99.90;;;;;;5064983;28;19912;-89
2022/05/26 15:01:47;;;;;;;;;;;26.80;99.90;;;;;;5076192;28;19919;-88
2022/05/26 15:04:12;;;;;;;;;;;26.90;99.90;;;;;;5070507;28;20374;-88
2022/05/26 15:06:39;;;;;;;;;;;26.80;99.90;;;;;;5079349;28;19913;-89
2022/05/26 15:09:08;;;;;;;;;;;27.70;99.90;;;;;;5061914;28;19934;-77
2022/05/26 15:11:34;;;;;;;;;;;28.20;99.90;;;;;;5038236;28;19920;-78
2022/05/26 15:13:59;;;;;;;;;;;28.10;99.90;;;;;;5063527;28;20333;-79
2022/05/26 15:16:25;;;;;;;;;;;28.10;99.90;;;;;;5088420;28;20356;-79
2022/05/26 15:18:50;;;;;;;;;;;27.60;99.90;;;;;;5063888;28;19968;-79
2022/05/26 15:21:16;;;;;;;;;;;27.60;99.90;;;;;;5065489;28;19921;-78
2022/05/26 15:23:42;;;;;;;;;;;27.30;99.90;;;;;;5091310;28;19908;-92
2022/05/26 15:26:07;;;;;;;;;;;28.00;99.90;;;;;;5067248;28;19913;-91
2022/05/26 15:28:36;;;;;;;;;;;29.30;99.90;;;;;;5049650;28;19912;-92
2022/05/26 15:31:02;;;;;;;;;;;30.10;99.90;;;;;;5057406;28;19960;-91